Time;durP1;ratioP1;P1;durP2;ratioP2;P2;SDS_P1;SDS_P2;PMS_P1;PMS_P2;Temp;Humidity;BMP_temperature;BMP_pressure;BME280_temperature;BME280_humidity;BME280_pressure;Samples;Min_cycle;Max_cycle;Signal;HPM_P1;HPM_P2
2022/07/11 00:00:02;;;;;;;6.40;2.25;;;;;;;11.81;90.87;96151.53;5056609;28;20816;-75
2022/07/11 00:02:48;;;;;;;8.30;1.80;;;;;;;11.67;91.84;96145.97;5075347;28;20037;-74
2022/07/11 00:05:13;;;;;;;4.55;1.90;;;;;;;11.76;91.36;96149.69;5073538;28;20048;-74
2022/07/11 00:07:39;;;;;;;3.53;2.00;;;;;;;11.87;91.98;96135.47;5075485;28;20031;-74
2022/07/11 00:10:05;;;;;;;2.13;1.60;;;;;;;11.98;91.28;96140.78;5055317;28;20080;-75
2022/07/11 00:12:31;;;;;;;3.67;2.10;;;;;;;12.01;91.12;96140.25;5074859;28;20025;-74
2022/07/11 00:14:56;;;;;;;4.18;1.58;;;;;;;12.08;90.99;96127.59;5057445;28;20028;-73
2022/07/11 00:17:23;;;;;;;3.78;1.70;;;;;;;12.10;91.09;96128.13;5072897;28;20053;-74
2022/07/11 00:19:49;;;;;;;3.35;1.90;;;;;;;12.12;91.31;96126.81;5067079;28;20060;-74
2022/07/11 00:22:15;;;;;;;3.65;1.80;;;;;;;12.09;89.12;96132.59;5057555;28;20025;-74
2022/07/11 00:24:40;;;;;;;4.22;1.75;;;;;;;12.16;89.29;96124.44;5076108;28;20072;-74
2022/07/11 00:27:06;;;;;;;3.70;1.80;;;;;;;12.21;88.82;96119.16;5073387;28;20093;-74
2022/07/11 00:29:32;;;;;;;2.53;1.73;;;;;;;12.16;90.07;96129.72;5058665;28;20041;-77
2022/07/11 00:31:58;;;;;;;4.93;1.92;;;;;;;12.18;89.37;96119.66;5031557;28;20067;-77
2022/07/11 00:34:25;;;;;;;2.40;1.70;;;;;;;12.22;89.69;96126.00;5048560;28;20039;-77
2022/07/11 00:36:51;;;;;;;4.35;2.08;;;;;;;12.24;89.62;96134.47;5045303;28;20095;-77
2022/07/11 00:39:16;;;;;;;2.78;1.70;;;;;;;12.33;89.68;96131.31;5048446;28;20049;-77
2022/07/11 00:41:42;;;;;;;4.15;1.88;;;;;;;12.24;90.45;96120.47;5048426;28;20049;-76
2022/07/11 00:44:08;;;;;;;3.75;1.90;;;;;;;12.33;90.90;96118.88;5048963;28;20047;-78
2022/07/11 00:46:33;;;;;;;2.83;1.60;;;;;;;12.35;91.85;96113.34;5034112;28;20072;-78
2022/07/11 00:48:59;;;;;;;4.88;2.30;;;;;;;12.37;91.88;96116.50;5048250;28;20075;-78
2022/07/11 00:51:26;;;;;;;3.60;1.60;;;;;;;12.44;90.67;96112.53;5033120;28;20072;-78
2022/07/11 00:53:54;;;;;;;2.63;1.80;;;;;;;12.43;90.27;96110.19;5046557;28;20033;-78
2022/07/11 00:56:22;;;;;;;4.97;1.88;;;;;;;12.48;90.68;96110.16;5033206;28;20112;-77
2022/07/11 00:58:48;;;;;;;3.20;1.73;;;;;;;12.37;91.60;96104.09;5052942;28;20044;-77
2022/07/11 01:01:14;;;;;;;2.83;1.85;;;;;;;12.37;90.46;96098.84;5040759;28;20042;-77
2022/07/11 01:03:39;;;;;;;6.93;2.10;;;;;;;12.50;90.79;96100.13;5032017;28;20091;-78
2022/07/11 01:06:09;;;;;;;8.55;2.10;;;;;;;12.48;89.53;96103.03;5046645;28;20045;-77
2022/07/11 01:08:36;;;;;;;4.97;2.08;;;;;;;12.54;88.95;96101.19;5033130;28;20049;-77
2022/07/11 01:11:02;;;;;;;6.43;1.90;;;;;;;12.62;88.05;96097.97;5041835;28;20050;-78
2022/07/11 01:13:28;;;;;;;5.13;2.03;;;;;;;12.67;87.33;96099.84;5034701;28;20056;-78
2022/07/11 01:16:12;;;;;;;5.90;1.90;;;;;;;12.64;86.56;96101.16;5052723;28;20037;-77
2022/07/11 01:18:49;;;;;;;5.75;1.90;;;;;;;12.65;87.61;96102.72;5053576;28;20041;-78
2022/07/11 01:21:40;;;;;;;3.05;1.88;;;;;;;12.76;87.88;96097.44;5049360;28;20033;-76
2022/07/11 01:24:07;;;;;;;3.83;2.00;;;;;;;12.64;88.94;96090.59;5051099;28;20056;-78
2022/07/11 01:26:33;;;;;;;5.65;1.95;;;;;;;12.70;87.52;96101.13;5054783;28;20075;-77
2022/07/11 01:29:09;;;;;;;4.57;1.80;;;;;;;12.71;85.85;96090.31;5050876;28;20044;-77
2022/07/11 01:31:37;;;;;;;3.47;2.00;;;;;;;12.74;86.22;96095.06;5035841;28;20052;-78
2022/07/11 01:34:03;;;;;;;4.47;2.05;;;;;;;12.75;87.15;96093.22;5044728;28;20053;-77
2022/07/11 01:36:28;;;;;;;3.45;2.10;;;;;;;12.73;86.43;96082.09;5033817;28;20045;-79
2022/07/11 01:38:54;;;;;;;4.85;1.95;;;;;;;12.75;88.15;96090.56;5052040;28;20437;-79
2022/07/11 01:41:19;;;;;;;4.82;2.42;;;;;;;12.79;86.72;96088.97;5051264;28;20041;-78
2022/07/11 01:43:44;;;;;;;7.90;2.20;;;;;;;12.71;87.22;96085.03;5034968;28;20076;-79
2022/07/11 01:46:10;;;;;;;7.47;2.95;;;;;;;12.79;88.28;96088.97;5054511;28;20053;-78
2022/07/11 01:48:35;;;;;;;4.13;2.08;;;;;;;12.83;88.98;96092.66;5052818;28;20048;-78
2022/07/11 01:51:01;;;;;;;5.45;2.75;;;;;;;12.82;88.91;96091.84;5049706;28;20473;-79
2022/07/11 01:53:26;;;;;;;6.18;2.22;;;;;;;12.86;88.78;96092.13;5034718;28;20491;-80
2022/07/11 01:55:52;;;;;;;3.67;2.25;;;;;;;12.92;89.22;96088.41;5035507;28;20094;-77
2022/07/11 01:58:17;;;;;;;5.40;2.00;;;;;;;12.90;88.90;96087.88;5050545;28;20500;-79
2022/07/11 02:00:43;;;;;;;4.50;2.15;;;;;;;12.91;88.80;96078.09;5033700;28;20045;-79
2022/07/11 02:03:09;;;;;;;4.07;1.98;;;;;;;12.90;88.77;96082.59;5052335;28;20051;-78
2022/07/11 02:05:34;;;;;;;4.90;2.53;;;;;;;12.94;88.64;96078.38;5051581;28;20057;-78
2022/07/11 02:08:12;;;;;;;3.03;2.03;;;;;;;12.96;88.33;96081.50;5048274;28;20088;-78
2022/07/11 02:10:50;;;;;;;8.40;2.67;;;;;;;12.94;87.61;96067.81;5049189;28;20055;-78
2022/07/11 02:13:17;;;;;;;4.35;2.15;;;;;;;12.91;88.49;96068.31;5032720;28;20048;-78
2022/07/11 02:15:44;;;;;;;3.53;2.20;;;;;;;12.96;88.51;96076.22;5033828;28;20040;-79
2022/07/11 02:18:10;;;;;;;6.05;2.40;;;;;;;12.90;87.79;96066.75;5029838;28;20085;-79
2022/07/11 02:20:38;;;;;;;4.30;2.40;;;;;;;12.94;87.79;96077.56;5050636;28;20044;-78
2022/07/11 02:23:03;;;;;;;5.65;2.40;;;;;;;12.86;88.00;96067.53;5051940;28;20051;-79
2022/07/11 02:25:30;;;;;;;5.45;2.35;;;;;;;12.89;87.09;96075.72;5033356;28;20052;-78
2022/07/11 02:27:56;;;;;;;6.07;2.35;;;;;;;13.00;85.05;96076.47;5034347;28;20036;-78
2022/07/11 02:30:21;;;;;;;7.85;2.60;;;;;;;12.95;85.25;96074.66;5051010;28;20300;-77
2022/07/11 02:32:48;;;;;;;4.35;2.40;;;;;;;12.93;84.96;96071.50;5051373;28;20421;-78
2022/07/11 02:35:14;;;;;;;6.13;2.63;;;;;;;12.95;86.58;96069.34;5050199;28;20041;-76
2022/07/11 02:37:39;;;;;;;5.35;2.50;;;;;;;12.84;88.00;96062.53;5049309;28;20052;-77
2022/07/11 02:40:05;;;;;;;6.53;2.42;;;;;;;12.93;86.08;96070.69;5047452;28;20041;-77
2022/07/11 02:42:31;;;;;;;4.93;2.38;;;;;;;12.92;87.60;96075.19;5048592;28;20556;-78
2022/07/11 02:44:56;;;;;;;4.35;2.60;;;;;;;12.81;88.37;96074.44;5051762;28;20053;-79
2022/07/11 02:47:22;;;;;;;8.95;3.50;;;;;;;12.83;86.85;96067.03;5052039;28;20049;-76
2022/07/11 02:49:48;;;;;;;5.10;2.60;;;;;;;12.93;88.08;96071.50;5046809;28;20426;-77
2022/07/11 02:52:14;;;;;;;5.65;2.65;;;;;;;12.86;88.33;96065.72;5033415;28;20052;-77
2022/07/11 02:54:39;;;;;;;7.07;2.72;;;;;;;12.91;88.19;96070.97;5033607;28;20037;-77
2022/07/11 02:57:05;;;;;;;4.70;2.30;;;;;;;12.98;86.38;96070.69;5035531;28;20041;-78
2022/07/11 02:59:30;;;;;;;5.40;2.30;;;;;;;12.96;88.21;96076.22;5050968;28;20041;-78
2022/07/11 03:01:56;;;;;;;8.13;2.72;;;;;;;12.89;86.96;96073.09;5050118;28;20108;-77
2022/07/11 03:04:22;;;;;;;5.57;2.70;;;;;;;12.87;87.18;96067.28;5052980;28;20041;-79
2022/07/11 03:06:47;;;;;;;4.25;2.47;;;;;;;12.95;86.32;96064.06;5035088;28;20044;-77
2022/07/11 03:09:13;;;;;;;5.53;2.70;;;;;;;12.94;85.72;96067.00;5047441;28;20057;-77
2022/07/11 03:11:38;;;;;;;5.07;2.55;;;;;;;12.93;87.37;96071.50;5048898;28;20549;-77
2022/07/11 03:14:04;;;;;;;8.02;2.60;;;;;;;12.97;88.33;96071.72;5051994;28;20083;-78
2022/07/11 03:16:30;;;;;;;7.93;2.50;;;;;;;12.92;86.96;96061.97;5053601;28;20391;-77
2022/07/11 03:18:57;;;;;;;7.05;2.75;;;;;;;12.90;86.48;96061.47;5052578;28;20033;-78
2022/07/11 03:21:23;;;;;;;5.20;2.50;;;;;;;12.89;87.00;96059.09;5053934;28;20055;-78
2022/07/11 03:23:49;;;;;;;8.02;2.95;;;;;;;12.91;86.33;96063.03;5053069;28;20049;-77
2022/07/11 03:26:16;;;;;;;5.57;2.90;;;;;;;13.01;85.92;96062.22;5033053;28;20037;-78
2022/07/11 03:28:41;;;;;;;5.32;2.60;;;;;;;12.98;86.10;96058.25;5035736;28;20766;-78
2022/07/11 03:31:07;;;;;;;5.93;2.60;;;;;;;12.90;85.06;96061.47;5035245;28;20136;-78
2022/07/11 03:33:33;;;;;;;5.60;2.40;;;;;;;12.91;85.66;96060.38;5053661;28;20128;-77
2022/07/11 03:35:58;;;;;;;12.75;2.60;;;;;;;12.94;84.61;96067.81;5043707;28;20037;-77
2022/07/11 03:38:24;;;;;;;5.93;2.65;;;;;;;12.94;84.83;96067.00;5031771;28;20086;-77
2022/07/11 03:40:50;;;;;;;5.40;2.60;;;;;;;12.83;85.42;96060.97;5050923;28;20086;-79
2022/07/11 03:43:18;;;;;;;7.88;2.85;;;;;;;12.92;86.19;96064.63;5034703;28;20037;-78
2022/07/11 03:45:43;;;;;;;6.05;2.63;;;;;;;12.99;86.83;96064.34;5053210;28;20043;-78
2022/07/11 03:48:10;;;;;;;3.92;2.38;;;;;;;13.02;87.12;96063.00;5033713;28;20123;-78
2022/07/11 03:50:36;;;;;;;3.38;2.28;;;;;;;13.12;86.38;96062.97;5052116;28;20065;-79
2022/07/11 03:53:02;;;;;;;5.18;2.70;;;;;;;13.05;88.09;96057.19;5051999;28;20529;-79
2022/07/11 03:55:28;;;;;;;5.93;2.60;;;;;;;13.08;87.94;96057.41;5052739;28;20048;-77
2022/07/11 03:57:54;;;;;;;6.40;2.53;;;;;;;13.15;87.97;96062.41;5048340;28;20041;-79
2022/07/11 04:00:20;;;;;;;4.18;2.40;;;;;;;13.14;88.56;96060.81;5051649;28;20033;-78
2022/07/11 04:02:47;;;;;;;6.40;2.75;;;;;;;13.19;87.08;96058.16;5033431;28;20041;-79
2022/07/11 04:05:13;;;;;;;4.70;2.42;;;;;;;13.26;87.48;96066.59;5051204;28;20063;-77
2022/07/11 04:07:39;;;;;;;5.93;2.53;;;;;;;13.27;86.95;96065.50;5045365;28;20128;-78
2022/07/11 04:10:05;;;;;;;5.65;2.60;;;;;;;13.28;86.75;96055.75;5046197;28;20044;-77
2022/07/11 04:12:30;;;;;;;9.13;2.92;;;;;;;13.29;86.27;96063.41;5028990;28;20045;-78
2022/07/11 04:14:56;;;;;;;8.25;2.58;;;;;;;13.32;85.47;96062.84;5032629;28;20568;-77
2022/07/11 04:17:22;;;;;;;4.47;2.22;;;;;;;13.34;83.50;96060.75;5049420;28;20521;-76
2022/07/11 04:19:47;;;;;;;6.13;2.85;;;;;;;13.43;84.55;96062.81;5047432;28;20045;-77
2022/07/11 04:22:12;;;;;;;4.43;2.40;;;;;;;13.39;83.27;96061.78;5054124;28;20037;-77
2022/07/11 04:24:38;;;;;;;4.85;2.40;;;;;;;13.41;85.87;96070.25;5054586;28;20132;-77
2022/07/11 04:27:04;;;;;;;4.57;2.60;;;;;;;13.47;84.75;96066.50;5051004;28;20087;-78
2022/07/11 04:29:30;;;;;;;5.05;2.70;;;;;;;13.43;84.94;96066.28;5053814;28;20041;-78
2022/07/11 04:31:56;;;;;;;5.97;2.70;;;;;;;13.46;85.34;96067.56;5054508;28;20044;-78
2022/07/11 04:34:21;;;;;;;4.97;2.70;;;;;;;13.59;82.17;96066.97;5054481;28;20053;-78
2022/07/11 04:36:47;;;;;;;5.28;2.42;;;;;;;13.59;82.69;96061.69;5044976;28;20103;-78
2022/07/11 04:39:13;;;;;;;7.13;2.83;;;;;;;13.71;84.04;96063.19;5053117;28;20041;-77
2022/07/11 04:41:38;;;;;;;6.50;3.00;;;;;;;13.64;82.47;96064.28;5050856;28;20091;-77
2022/07/11 04:44:04;;;;;;;6.68;2.70;;;;;;;13.66;84.24;96071.94;5037866;28;20041;-78
2022/07/11 04:46:31;;;;;;;5.03;2.67;;;;;;;13.76;83.40;96071.06;5056402;28;20087;-77
2022/07/11 04:48:57;;;;;;;4.68;2.55;;;;;;;13.79;82.93;96070.50;5054343;28;20041;-79
2022/07/11 04:51:24;;;;;;;5.63;2.60;;;;;;;13.90;81.87;96066.72;5037402;28;20100;-77
2022/07/11 04:53:50;;;;;;;5.50;2.53;;;;;;;13.95;80.83;96073.84;5055770;28;20473;-78
2022/07/11 04:56:22;;;;;;;8.10;2.70;;;;;;;14.01;80.12;96078.03;5038967;28;20124;-76
2022/07/11 04:58:47;;;;;;;7.22;2.58;;;;;;;14.09;79.62;96079.28;5049331;28;20645;-77
2022/07/11 05:01:13;;;;;;;4.13;2.55;;;;;;;14.08;79.51;96083.00;5054337;28;20056;-79
2022/07/11 05:03:39;;;;;;;7.13;2.50;;;;;;;14.10;79.32;96075.59;5035646;28;20407;-76
2022/07/11 05:06:06;;;;;;;7.18;2.78;;;;;;;14.14;79.30;96076.63;5034337;28;20048;-78
2022/07/11 05:08:38;;;;;;;4.85;2.50;;;;;;;14.16;79.45;96079.75;5057254;28;20732;-78
2022/07/11 05:11:04;;;;;;;11.60;2.92;;;;;;;14.17;79.61;96078.69;5053434;28;20037;-80
2022/07/11 05:13:31;;;;;;;6.78;2.50;;;;;;;14.17;78.04;96086.66;5055392;28;20101;-79
2022/07/11 05:15:56;;;;;;;4.80;2.50;;;;;;;14.19;77.81;96082.66;5057259;28;20044;-78
2022/07/11 05:18:22;;;;;;;6.35;2.33;;;;;;;14.33;76.77;96096.00;5045320;28;20530;-77
2022/07/11 05:20:48;;;;;;;7.00;2.50;;;;;;;14.37;76.89;96091.75;5046660;28;20068;-77
2022/07/11 05:23:15;;;;;;;4.22;2.17;;;;;;;14.49;75.94;96085.28;5036138;28;20037;-77
2022/07/11 05:25:40;;;;;;;7.30;2.53;;;;;;;14.43;72.80;96084.53;5046932;28;20041;-78
2022/07/11 05:28:06;;;;;;;5.18;2.42;;;;;;;14.64;74.14;96095.78;5052311;28;20063;-77
2022/07/11 05:30:32;;;;;;;7.10;2.28;;;;;;;14.68;70.26;96091.50;5038865;28;20041;-77
2022/07/11 05:32:57;;;;;;;13.00;2.63;;;;;;;14.67;71.69;96089.91;5053089;28;20106;-79
2022/07/11 05:35:25;;;;;;;6.47;2.72;;;;;;;14.78;74.45;96095.88;5051539;28;20495;-80
2022/07/11 05:37:51;;;;;;;11.30;3.35;;;;;;;14.78;74.70;96092.44;5048162;28;20402;-78
2022/07/11 05:40:16;;;;;;;11.80;3.95;;;;;;;14.98;72.50;96100.16;5048831;28;20033;-78
2022/07/11 05:42:42;;;;;;;6.85;2.58;;;;;;;15.06;73.46;96096.09;5054490;28;20048;-78
2022/07/11 05:45:08;;;;;;;4.95;2.50;;;;;;;15.01;72.16;96094.31;5033310;28;20057;-78
2022/07/11 05:47:34;;;;;;;5.03;2.42;;;;;;;14.97;74.60;96095.94;5050835;28;20045;-76
2022/07/11 05:49:59;;;;;;;8.82;2.78;;;;;;;15.14;72.85;96098.13;5049921;28;20093;-78
2022/07/11 05:52:25;;;;;;;8.02;2.78;;;;;;;15.20;71.29;96096.19;5052215;28;20057;-76
2022/07/11 05:54:51;;;;;;;6.95;2.42;;;;;;;15.22;69.59;96099.38;5056378;28;20045;-79
2022/07/11 05:57:16;;;;;;;12.35;2.95;;;;;;;15.24;70.14;96091.91;5054279;28;20037;-78
2022/07/11 05:59:41;;;;;;;9.77;2.55;;;;;;;15.24;69.52;96090.06;5052653;28;20073;-79
2022/07/11 06:02:07;;;;;;;9.48;2.75;;;;;;;15.30;69.13;96096.09;5039387;28;20044;-79
2022/07/11 06:04:33;;;;;;;7.68;2.25;;;;;;;15.37;67.52;96099.19;5055859;28;20045;-79
2022/07/11 06:06:59;;;;;;;5.80;2.15;;;;;;;15.37;67.79;96091.22;5049686;28;20045;-81
2022/07/11 06:09:25;;;;;;;7.07;2.47;;;;;;;15.35;68.66;96096.00;5045728;28;20087;-77
2022/07/11 06:11:50;;;;;;;7.05;2.60;;;;;;;15.36;69.68;96094.94;5051331;28;20048;-77
2022/07/11 06:14:16;;;;;;;8.25;3.05;;;;;;;15.42;68.97;96096.44;5033824;28;20059;-77
2022/07/11 06:16:41;;;;;;;10.65;2.50;;;;;;;15.37;69.02;96091.22;5051985;28;20051;-77
2022/07/11 06:19:07;;;;;;;6.53;2.30;;;;;;;15.29;68.67;96083.91;5044661;28;20564;-77
2022/07/11 06:21:33;;;;;;;8.90;2.83;;;;;;;15.21;71.07;96087.16;5049606;28;20037;-77
2022/07/11 06:23:59;;;;;;;4.70;2.25;;;;;;;15.31;71.47;96091.56;5051654;28;20071;-78
2022/07/11 06:26:24;;;;;;;6.25;2.10;;;;;;;15.36;69.84;96076.38;5049329;28;20067;-78
2022/07/11 06:28:50;;;;;;;4.72;2.30;;;;;;;15.22;68.65;96078.94;5051044;28;20068;-80
2022/07/11 06:31:16;;;;;;;10.35;2.80;;;;;;;15.34;67.11;96081.19;5032596;28;20544;-77
2022/07/11 06:33:41;;;;;;;7.63;2.60;;;;;;;15.33;67.23;96084.91;5044911;28;20456;-77
2022/07/11 06:36:08;;;;;;;5.50;2.70;;;;;;;15.37;65.11;96085.91;5046209;28;20045;-79
2022/07/11 06:38:34;;;;;;;10.48;2.72;;;;;;;15.50;66.10;96088.91;5044693;28;20052;-78
2022/07/11 06:41:00;;;;;;;8.85;2.40;;;;;;;15.48;65.27;96080.47;5040585;28;20041;-77
2022/07/11 06:43:27;;;;;;;11.68;3.38;;;;;;;15.49;65.99;96087.34;5032901;28;20548;-78
2022/07/11 06:45:53;;;;;;;4.32;2.05;;;;;;;15.55;64.43;96088.84;5051064;28;20049;-77
2022/07/11 06:48:20;;;;;;;8.82;2.75;;;;;;;15.66;64.44;96082.34;5047897;28;20534;-77
2022/07/11 06:50:46;;;;;;;4.75;2.50;;;;;;;15.67;65.74;96083.13;5032396;28;20049;-78
2022/07/11 06:53:11;;;;;;;4.22;2.33;;;;;;;15.71;65.57;96087.56;5030882;28;20056;-76
2022/07/11 06:55:37;;;;;;;6.22;2.50;;;;;;;15.68;65.85;96085.47;5049824;28;20609;-76
2022/07/11 06:58:02;;;;;;;9.63;2.42;;;;;;;15.65;64.99;96085.28;5029073;28;20045;-76
2022/07/11 07:00:28;;;;;;;5.30;2.40;;;;;;;15.73;64.28;96084.59;5023952;28;20458;-78
2022/07/11 07:02:56;;;;;;;4.93;2.70;;;;;;;15.67;65.60;96078.59;5050068;28;20051;-77
2022/07/11 07:05:28;;;;;;;4.88;2.05;;;;;;;15.65;64.52;96075.44;5083051;28;20401;-79
2022/07/11 07:07:54;;;;;;;14.73;2.42;;;;;;;15.54;63.60;96079.31;5064881;28;20041;-78
2022/07/11 07:10:19;;;;;;;5.07;2.25;;;;;;;15.70;64.38;96078.03;5060920;28;20045;-79
2022/07/11 07:12:45;;;;;;;7.50;2.22;;;;;;;15.84;63.91;96072.03;5067472;28;20049;-77
2022/07/11 07:15:12;;;;;;;6.40;2.30;;;;;;;15.89;64.87;96079.91;5061030;28;20047;-78
2022/07/11 07:17:38;;;;;;;7.05;1.90;;;;;;;15.87;63.74;96076.75;5054266;28;20128;-81
2022/07/11 07:20:05;;;;;;;6.10;2.22;;;;;;;15.89;63.70;96082.56;5054577;28;20033;-81
2022/07/11 07:22:30;;;;;;;5.80;2.15;;;;;;;15.82;64.27;96069.66;5063226;28;20049;-81
2022/07/11 07:24:57;;;;;;;6.43;2.00;;;;;;;16.02;64.71;96079.16;5056933;28;20086;-78
2022/07/11 07:27:22;;;;;;;4.45;1.95;;;;;;;16.07;62.62;96075.63;5058384;28;20087;-78
2022/07/11 07:29:48;;;;;;;5.22;1.85;;;;;;;16.32;61.42;96081.59;5058251;28;20406;-77
2022/07/11 07:32:14;;;;;;;3.45;1.88;;;;;;;16.50;61.25;96077.31;5058285;28;20056;-77
2022/07/11 07:34:39;;;;;;;5.28;2.00;;;;;;;16.51;61.40;96084.22;5060899;28;20521;-78
2022/07/11 07:37:05;;;;;;;6.18;1.95;;;;;;;16.39;60.84;96082.81;5061485;28;20048;-77
2022/07/11 07:39:30;;;;;;;4.03;1.83;;;;;;;16.29;60.53;96072.34;5050378;28;20534;-77
2022/07/11 07:41:56;;;;;;;2.35;1.65;;;;;;;16.43;61.37;96083.81;5064103;28;20044;-78
2022/07/11 07:44:21;;;;;;;2.85;1.40;;;;;;;16.57;61.43;96083.81;5065681;28;20123;-78
2022/07/11 07:46:47;;;;;;;5.60;2.15;;;;;;;16.65;58.26;96079.72;5060902;28;20420;-78
2022/07/11 07:49:12;;;;;;;2.05;1.40;;;;;;;16.68;58.67;96073.00;5063811;28;20441;-78
2022/07/11 07:51:38;;;;;;;2.80;1.70;;;;;;;16.76;58.28;96074.97;5065459;28;21961;-78
2022/07/11 07:54:03;;;;;;;3.85;1.42;;;;;;;17.18;56.94;96075.00;5065921;28;20505;-77
2022/07/11 07:56:29;;;;;;;4.80;1.70;;;;;;;17.23;55.24;96074.91;5063124;28;20046;-78
2022/07/11 07:58:55;;;;;;;2.30;1.40;;;;;;;17.21;58.13;96074.38;5066019;28;20406;-78
2022/07/11 08:01:36;;;;;;;1.38;1.10;;;;;;;17.48;54.73;96071.69;5059289;28;20106;-79
2022/07/11 08:04:06;;;;;;;5.97;1.23;;;;;;;17.45;55.20;96069.59;5064814;28;20037;-78
2022/07/11 08:06:34;;;;;;;1.92;1.13;;;;;;;17.50;54.86;96066.06;5055421;28;20045;-78
2022/07/11 08:09:00;;;;;;;0.88;0.80;;;;;;;17.30;54.97;96069.97;5065001;28;20495;-78
2022/07/11 08:11:26;;;;;;;1.20;1.10;;;;;;;17.33;55.42;96066.69;5058846;28;20044;-78
2022/07/11 08:13:52;;;;;;;5.75;1.92;;;;;;;17.39;56.38;96070.81;5065261;28;20564;-80
2022/07/11 08:16:18;;;;;;;6.70;2.17;;;;;;;17.45;57.46;96077.59;5051456;28;20045;-77
2022/07/11 08:18:43;;;;;;;10.93;1.83;;;;;;;17.34;58.57;96078.91;5041514;28;20529;-78
2022/07/11 08:21:09;;;;;;;5.63;1.85;;;;;;;17.33;55.85;96069.34;5042338;28;20041;-77
2022/07/11 08:23:36;;;;;;;4.45;1.55;;;;;;;17.32;56.74;96070.44;5050106;28;20583;-75
2022/07/11 08:26:02;;;;;;;3.05;1.35;;;;;;;17.40;54.96;96072.41;5045976;28;20782;-77
2022/07/11 08:28:27;;;;;;;2.30;1.10;;;;;;;17.53;54.49;96069.97;5047615;28;20040;-76
2022/07/11 08:30:53;;;;;;;4.82;1.42;;;;;;;17.73;57.34;96064.22;5046175;28;20052;-79
2022/07/11 08:33:18;;;;;;;4.20;1.50;;;;;;;17.40;53.86;96072.41;5039120;28;20095;-77
2022/07/11 08:35:44;;;;;;;1.63;1.30;;;;;;;17.64;55.29;96072.13;5040517;28;20037;-77
2022/07/11 08:38:09;;;;;;;6.70;2.00;;;;;;;17.78;56.06;96072.06;5049499;28;20037;-79
2022/07/11 08:40:34;;;;;;;3.80;1.60;;;;;;;17.88;56.17;96080.94;5046389;28;20056;-80
2022/07/11 08:43:04;;;;;;;4.15;2.00;;;;;;;17.84;56.95;96078.88;5048438;28;20457;-77
2022/07/11 08:45:31;;;;;;;5.32;2.10;;;;;;;17.69;58.11;96079.22;5051537;28;20094;-80
2022/07/11 08:48:01;;;;;;;2.92;1.80;;;;;;;17.70;57.05;96080.78;5041562;28;20095;-76
2022/07/11 08:50:27;;;;;;;3.55;1.70;;;;;;;17.61;57.11;96071.94;5043854;28;20041;-76
2022/07/11 08:52:57;;;;;;;8.10;2.03;;;;;;;17.62;55.81;96076.97;5046139;28;20040;-78
2022/07/11 08:55:23;;;;;;;2.47;1.50;;;;;;;17.65;55.34;96083.56;5049090;28;20041;-78
2022/07/11 08:57:49;;;;;;;3.72;1.50;;;;;;;18.07;54.77;96073.56;5041544;28;20041;-77
2022/07/11 09:00:16;;;;;;;2.05;1.55;;;;;;;18.02;54.58;96076.34;5039069;28;20043;-76
2022/07/11 09:02:43;;;;;;;3.15;1.55;;;;;;;17.95;55.05;96068.00;5050581;28;20052;-77
2022/07/11 09:05:09;;;;;;;6.70;1.90;;;;;;;17.97;55.41;96068.47;5050451;28;20139;-77
2022/07/11 09:07:43;;;;;;;3.20;1.77;;;;;;;17.99;56.10;96076.97;5044719;28;20032;-76
2022/07/11 09:10:08;;;;;;;4.18;1.67;;;;;;;17.89;54.98;96077.19;5046859;28;20040;-78
2022/07/11 09:12:34;;;;;;;3.40;1.85;;;;;;;18.01;56.35;96074.78;5046025;28;20045;-77
2022/07/11 09:15:00;;;;;;;4.32;1.70;;;;;;;17.99;55.05;96071.66;5045122;28;20041;-80
2022/07/11 09:17:28;;;;;;;5.97;2.10;;;;;;;17.71;57.10;96071.69;5045415;28;20120;-81
2022/07/11 09:19:54;;;;;;;3.58;1.80;;;;;;;17.71;57.18;96071.69;5044265;28;20037;-83
2022/07/11 09:25:24;;;;;;;;;;;;;;;17.97;56.99;96071.13;5044526;28;20045;-77
2022/07/11 09:27:50;;;;;;;6.28;2.00;;;;;;;18.07;56.90;96068.22;5040934;28;19921;-82
2022/07/11 09:30:22;;;;;;;4.38;2.28;;;;;;;18.04;55.73;96074.16;5050634;28;20037;-79
2022/07/11 09:33:09;;;;;;;4.97;2.10;;;;;;;18.04;56.34;96068.84;5050192;28;20688;-78
2022/07/11 09:35:45;;;;;;;4.50;2.47;;;;;;;18.06;57.00;96072.00;5037307;28;20040;-79
2022/07/11 09:38:12;;;;;;;3.70;1.80;;;;;;;18.28;57.04;96073.06;5044358;28;20033;-79
2022/07/11 09:40:42;;;;;;;3.20;1.60;;;;;;;18.32;55.20;96079.38;5044083;28;20068;-79
2022/07/11 09:43:08;;;;;;;7.47;1.80;;;;;;;18.33;56.36;96080.91;5049639;28;20090;-79
2022/07/11 09:45:35;;;;;;;2.92;1.80;;;;;;;18.30;56.35;96081.53;5045071;28;20419;-79
2022/07/11 09:48:11;;;;;;;5.22;1.90;;;;;;;18.35;56.89;96078.75;5046621;28;20033;-83
2022/07/11 09:50:39;;;;;;;3.28;1.73;;;;;;;18.41;56.87;96082.09;5040312;28;20041;-78
2022/07/11 09:53:16;;;;;;;6.10;2.28;;;;;;;18.30;56.63;96081.53;5047790;28;20041;-79
2022/07/11 09:55:45;;;;;;;7.38;1.80;;;;;;;18.31;56.27;96080.44;5044056;28;20037;-78
2022/07/11 09:58:16;;;;;;;1.88;1.58;;;;;;;18.32;57.19;96074.81;5046127;28;20130;-77
2022/07/11 10:00:43;;;;;;;4.97;1.88;;;;;;;18.18;57.93;96072.22;5042751;28;20499;-79
2022/07/11 10:03:11;;;;;;;4.20;1.80;;;;;;;18.20;57.59;96076.47;5047045;28;20037;-76
2022/07/11 10:05:37;;;;;;;4.13;1.63;;;;;;;18.12;57.29;96065.47;5048015;28;20037;-77
2022/07/11 10:08:04;;;;;;;2.92;1.40;;;;;;;18.24;56.78;96074.78;5046445;28;20049;-80
2022/07/11 10:10:31;;;;;;;1.38;1.00;;;;;;;18.22;55.21;96076.97;5047710;28;20171;-79
2022/07/11 10:12:57;;;;;;;0.82;0.82;;;;;;;18.27;56.15;96076.81;5044977;28;20041;-78
2022/07/11 10:15:29;;;;;;;1.15;1.00;;;;;;;18.45;55.19;96078.50;5047720;28;20041;-79
2022/07/11 10:18:12;;;;;;;1.10;1.00;;;;;;;18.63;54.18;96079.38;5040166;28;20048;-78
2022/07/11 10:20:49;;;;;;;1.35;1.05;;;;;;;18.76;53.51;96069.72;5044595;28;20068;-82
2022/07/11 10:23:33;;;;;;;1.70;1.20;;;;;;;18.71;54.09;96075.16;5038952;28;20041;-75
2022/07/11 10:26:14;;;;;;;1.20;1.10;;;;;;;18.75;54.23;96067.31;5048272;28;20501;-74
2022/07/11 10:28:55;;;;;;;1.65;1.10;;;;;;;18.59;53.43;96077.59;5043798;28;20047;-78
2022/07/11 10:31:23;;;;;;;3.42;1.30;;;;;;;18.94;55.10;96078.56;5038887;28;20098;-79
2022/07/11 10:34:04;;;;;;;2.20;0.82;;;;;;;19.11;54.85;96072.50;5049515;28;20464;-78
2022/07/11 10:36:33;;;;;;;5.38;1.20;;;;;;;19.35;53.20;96081.94;5047767;28;20041;-78
2022/07/11 10:39:34;;;;;;;3.65;1.10;;;;;;;19.29;52.98;96077.88;5046169;28;20030;-80
2022/07/11 10:42:05;;;;;;;1.60;1.10;;;;;;;19.41;53.34;96086.06;5038848;28;20067;-79
2022/07/11 10:44:59;;;;;;;1.38;1.27;;;;;;;19.36;53.46;96083.53;5048986;28;20242;-76
2022/07/11 10:47:35;;;;;;;2.67;1.40;;;;;;;19.27;52.87;96080.06;5045192;28;20038;-76
2022/07/11 10:50:26;;;;;;;2.22;1.35;;;;;;;19.18;53.23;96083.50;5043473;28;20037;-77
2022/07/11 10:52:56;;;;;;;1.70;1.33;;;;;;;19.36;53.30;96083.53;5041030;28;20057;-76
2022/07/11 10:55:33;;;;;;;1.13;1.08;;;;;;;19.11;54.61;96083.16;5050077;28;20049;-78
2022/07/11 10:58:22;;;;;;;2.47;1.33;;;;;;;19.05;54.81;96084.41;5045673;28;20045;-78
2022/07/11 11:01:13;;;;;;;3.92;1.52;;;;;;;19.12;53.44;96084.75;5047560;28;20432;-80
2022/07/11 11:03:40;;;;;;;2.25;1.40;;;;;;;18.92;54.32;96087.97;5043476;28;20044;-77
2022/07/11 11:06:06;;;;;;;1.90;1.23;;;;;;;19.00;54.55;96084.56;5049999;28;20134;-78
2022/07/11 11:08:41;;;;;;;1.85;1.00;;;;;;;18.90;54.19;96090.16;5041507;28;20053;-78
2022/07/11 11:11:29;;;;;;;3.95;1.42;;;;;;;18.96;55.13;96080.94;5043451;28;20045;-77
2022/07/11 11:14:19;;;;;;;1.23;1.13;;;;;;;19.52;54.00;96087.34;5039501;28;20060;-77
2022/07/11 11:16:46;;;;;;;1.80;1.40;;;;;;;19.79;51.59;96074.78;5034116;28;20038;-82
2022/07/11 11:19:45;;;;;;;2.13;1.40;;;;;;;20.28;50.70;96079.16;5039333;28;20051;-77
2022/07/11 11:22:16;;;;;;;2.42;1.30;;;;;;;20.90;49.50;96072.50;5048532;28;20033;-77
2022/07/11 11:24:43;;;;;;;2.30;1.30;;;;;;;20.91;48.98;96072.19;5048749;28;20045;-77
2022/07/11 11:27:17;;;;;;;3.13;1.45;;;;;;;21.00;48.92;96071.38;5041988;28;20541;-77
2022/07/11 11:29:44;;;;;;;4.55;2.58;;;;;;;21.34;48.15;96069.63;5042954;28;20105;-78
2022/07/11 11:32:09;;;;;;;2.15;1.38;;;;;;;21.03;46.29;96065.38;5049333;28;20037;-79
2022/07/11 11:34:36;;;;;;;1.20;1.10;;;;;;;21.42;47.38;96071.44;5045332;28;20045;-78
2022/07/11 11:37:01;;;;;;;1.95;1.48;;;;;;;21.74;46.03;96071.88;5044242;28;20076;-81
2022/07/11 11:39:30;;;;;;;1.33;1.10;;;;;;;21.77;45.87;96077.34;5044835;28;20482;-81